createdAt,value
2019-02-21T00:01:04.470Z,6.60
2019-02-21T00:05:15.610Z,6.50
2019-02-21T00:09:26.617Z,6.40
2019-02-21T00:13:37.637Z,6.30
2019-02-21T00:17:48.834Z,6.30
2019-02-21T00:22:00.107Z,6.30
2019-02-21T00:26:11.283Z,6.20
2019-02-21T00:30:22.616Z,6.20
2019-02-21T00:34:34.279Z,6.10
2019-02-21T00:38:45.531Z,6.10
2019-02-21T00:42:56.630Z,6.00
2019-02-21T00:47:07.623Z,6.00
2019-02-21T00:51:18.794Z,6.00
2019-02-21T00:55:30.744Z,5.90
2019-02-21T00:59:41.740Z,5.80
2019-02-21T01:03:52.742Z,5.80
2019-02-21T01:08:03.831Z,5.80
2019-02-21T01:12:15.021Z,5.70
2019-02-21T01:16:26.292Z,5.70
2019-02-21T01:20:37.391Z,5.70
2019-02-21T01:24:48.494Z,5.60
2019-02-21T01:28:59.579Z,5.60
2019-02-21T01:33:10.681Z,5.60
2019-02-21T01:37:21.891Z,5.50
2019-02-21T01:41:32.986Z,5.50
2019-02-21T01:45:44.073Z,5.50
2019-02-21T01:49:55.082Z,5.60
2019-02-21T01:54:06.076Z,5.60
2019-02-21T01:58:16.103Z,5.70
2019-02-21T02:02:27.212Z,5.70
2019-02-21T02:06:38.205Z,5.70
2019-02-21T02:10:49.201Z,5.80
2019-02-21T02:15:00.304Z,5.70
2019-02-21T02:19:11.301Z,5.70
2019-02-21T02:23:22.308Z,5.70
2019-02-21T02:27:33.419Z,5.70
2019-02-21T02:31:44.703Z,5.70
2019-02-21T02:35:55.991Z,5.60
2019-02-21T02:40:08.054Z,5.60
2019-02-21T02:44:19.048Z,5.50
2019-02-21T02:48:30.152Z,5.50
2019-02-21T02:52:41.152Z,5.50
2019-02-21T02:56:52.255Z,5.50
2019-02-21T03:01:03.363Z,5.50
2019-02-21T03:05:14.349Z,5.60
2019-02-21T03:09:25.353Z,5.60
2019-02-21T03:13:36.355Z,5.60
2019-02-21T03:17:47.361Z,5.60
2019-02-21T03:21:58.484Z,5.60
2019-02-21T03:26:09.953Z,5.60
2019-02-21T03:30:20.941Z,5.60
2019-02-21T03:34:31.936Z,5.50
2019-02-21T03:38:43.043Z,5.50
2019-02-21T03:42:54.145Z,5.50
2019-02-21T03:47:05.161Z,5.50
2019-02-21T03:51:16.415Z,5.50
2019-02-21T03:55:27.625Z,5.50
2019-02-21T03:59:37.708Z,5.50
2019-02-21T04:03:49.177Z,5.50
2019-02-21T04:08:00.365Z,5.50
2019-02-21T04:12:11.455Z,5.50
2019-02-21T04:16:22.575Z,5.60
2019-02-21T04:20:33.668Z,5.70
2019-02-21T04:24:44.663Z,5.70
2019-02-21T04:28:55.659Z,5.70
2019-02-21T04:33:06.663Z,5.80
2019-02-21T04:37:17.757Z,5.80
2019-02-21T04:41:28.751Z,5.80
2019-02-21T04:45:39.767Z,5.80
2019-02-21T04:49:50.864Z,5.80
2019-02-21T04:54:01.866Z,5.80
2019-02-21T04:58:12.874Z,5.80
2019-02-21T05:02:29.185Z,5.90
2019-02-21T05:06:37.157Z,5.90
2019-02-21T05:10:48.149Z,5.90
2019-02-21T05:14:59.260Z,5.90
2019-02-21T05:19:10.466Z,5.90
2019-02-21T05:23:21.567Z,5.90
2019-02-21T05:27:33.456Z,6.00
2019-02-21T05:31:49.292Z,6.00
2019-02-21T05:36:01.944Z,6.00
2019-02-21T05:40:28.592Z,6.00
2019-02-21T05:44:44.145Z,6.00
2019-02-21T05:48:57.782Z,5.90
2019-02-21T05:53:22.281Z,5.90
2019-02-21T05:57:51.183Z,5.90
2019-02-21T06:02:04.031Z,6.00
2019-02-21T06:06:32.029Z,6.00
2019-02-21T06:10:56.491Z,6.00
2019-02-21T06:15:27.670Z,6.00
2019-02-21T06:19:40.731Z,6.00
2019-02-21T06:24:08.268Z,6.10
2019-02-21T06:28:23.184Z,6.10
2019-02-21T06:32:34.298Z,6.20
2019-02-21T06:36:45.403Z,6.20
2019-02-21T06:40:56.400Z,6.20
2019-02-21T06:45:08.080Z,6.30
2019-02-21T06:49:19.162Z,6.30
2019-02-21T06:53:30.192Z,6.30
2019-02-21T06:57:41.193Z,6.40
2019-02-21T07:01:52.322Z,6.40
2019-02-21T07:06:03.358Z,6.50
2019-02-21T07:10:14.342Z,6.50
2019-02-21T07:14:25.457Z,6.60
2019-02-21T07:18:37.513Z,6.70
2019-02-21T07:22:48.507Z,6.70
2019-02-21T07:27:01.562Z,6.80
2019-02-21T07:31:12.462Z,6.90
2019-02-21T07:35:23.467Z,7.00
2019-02-21T07:39:36.329Z,7.00
2019-02-21T07:43:47.971Z,7.10
2019-02-21T07:47:58.992Z,7.10
2019-02-21T07:52:10.093Z,7.10
2019-02-21T07:56:21.124Z,7.10
2019-02-21T08:00:32.866Z,7.10
2019-02-21T08:04:44.290Z,7.20
2019-02-21T08:08:55.383Z,7.30
2019-02-21T08:13:06.483Z,7.40
2019-02-21T08:17:17.507Z,7.50
2019-02-21T08:21:28.859Z,7.60
2019-02-21T08:25:39.828Z,7.80
2019-02-21T08:29:50.922Z,7.90
2019-02-21T08:34:04.457Z,8.10
2019-02-21T08:38:15.560Z,8.30
2019-02-21T08:42:26.653Z,8.40
2019-02-21T08:46:37.748Z,8.40
2019-02-21T08:50:48.942Z,8.40
2019-02-21T08:55:00.744Z,8.40
2019-02-21T08:59:12.036Z,8.40
2019-02-21T09:03:23.300Z,8.40
2019-02-21T09:07:34.391Z,8.40
2019-02-21T09:11:45.496Z,8.50
2019-02-21T09:15:56.608Z,8.50
2019-02-21T09:20:09.668Z,8.60
2019-02-21T09:24:37.432Z,8.50
2019-02-21T09:28:33.315Z,8.50
2019-02-21T09:32:44.607Z,8.60
2019-02-21T09:36:55.770Z,8.70
2019-02-21T09:41:07.157Z,8.90
2019-02-21T09:45:18.909Z,9.00
2019-02-21T09:49:29.907Z,9.30
2019-02-21T09:53:41.009Z,9.30
2019-02-21T09:57:52.043Z,9.30
2019-02-21T10:02:05.921Z,9.20
2019-02-21T10:06:16.916Z,9.20
2019-02-21T10:10:28.041Z,9.20
2019-02-21T10:14:39.139Z,9.10
2019-02-21T10:18:50.138Z,9.10
2019-02-21T10:23:01.295Z,9.00
2019-02-21T10:27:12.389Z,9.00
2019-02-21T10:31:23.457Z,9.10
2019-02-21T10:35:34.566Z,9.30
2019-02-21T10:39:47.690Z,9.40
2019-02-21T10:43:57.990Z,9.60
2019-02-21T10:48:09.796Z,9.70
2019-02-21T10:52:19.846Z,9.80
2019-02-21T10:56:30.843Z,9.80
2019-02-21T11:00:42.909Z,9.90
2019-02-21T11:04:55.113Z,10.10
2019-02-21T11:09:08.333Z,10.40
2019-02-21T11:13:19.406Z,10.60
2019-02-21T11:17:32.094Z,10.70
2019-02-21T11:21:42.121Z,10.80
2019-02-21T11:25:53.156Z,10.90
2019-02-21T11:30:07.475Z,11.00
2019-02-21T11:34:18.469Z,10.90
2019-02-21T11:38:30.199Z,11.30
2019-02-21T11:42:41.639Z,11.60
2019-02-21T11:46:52.751Z,11.80
2019-02-21T11:51:04.033Z,12.80
2019-02-21T11:55:22.785Z,14.10
2019-02-21T11:59:33.784Z,15.60
2019-02-21T12:03:44.895Z,14.60
2019-02-21T12:07:57.667Z,13.70
2019-02-21T12:12:10.396Z,14.40
2019-02-21T12:16:21.329Z,14.10
2019-02-21T12:20:32.438Z,13.60
2019-02-21T12:24:43.533Z,13.60
2019-02-21T12:28:54.545Z,13.80
2019-02-21T12:33:05.623Z,13.60
2019-02-21T12:37:16.633Z,13.70
2019-02-21T12:41:27.632Z,13.00
2019-02-21T12:45:38.646Z,12.70
2019-02-21T12:49:49.819Z,12.50
2019-02-21T12:54:00.830Z,12.20
2019-02-21T12:58:11.829Z,11.80
2019-02-21T13:02:22.940Z,11.60
2019-02-21T13:06:34.056Z,11.60
2019-02-21T13:10:45.163Z,11.60
2019-02-21T13:14:56.267Z,11.60
2019-02-21T13:19:07.386Z,11.70
2019-02-21T13:23:18.405Z,11.60
2019-02-21T13:27:29.437Z,11.30
2019-02-21T13:31:40.483Z,11.20
2019-02-21T13:35:53.031Z,11.30
2019-02-21T13:40:06.330Z,11.30
2019-02-21T13:44:17.911Z,11.30
2019-02-21T13:48:29.777Z,11.20
2019-02-21T13:52:40.884Z,11.30
2019-02-21T13:56:51.579Z,11.50
2019-02-21T14:01:02.586Z,11.50
2019-02-21T14:05:13.520Z,11.50
2019-02-21T14:09:24.662Z,11.50
2019-02-21T14:13:36.584Z,11.50
2019-02-21T14:17:48.258Z,11.80
2019-02-21T14:21:59.260Z,11.90
2019-02-21T14:26:10.368Z,11.90
2019-02-21T14:30:22.122Z,11.80
2019-02-21T14:34:33.122Z,11.60
2019-02-21T14:38:44.135Z,11.50
2019-02-21T14:42:55.252Z,11.40
2019-02-21T14:47:08.058Z,11.40
2019-02-21T14:51:18.994Z,11.40
2019-02-21T14:55:30.194Z,11.40
2019-02-21T14:59:41.326Z,11.30
2019-02-21T15:03:52.344Z,11.40
2019-02-21T15:08:03.685Z,11.40
2019-02-21T15:12:14.689Z,11.40
2019-02-21T15:16:25.804Z,11.40
2019-02-21T15:20:37.347Z,11.40
2019-02-21T15:24:48.401Z,11.40
2019-02-21T15:29:01.311Z,11.40
2019-02-21T15:33:12.426Z,11.30
2019-02-21T15:37:23.046Z,11.20
2019-02-21T15:41:34.049Z,11.20
2019-02-21T15:45:46.180Z,11.20
2019-02-21T15:49:57.237Z,11.20
2019-02-21T15:54:08.435Z,11.10
2019-02-21T15:58:19.473Z,11.10
2019-02-21T16:02:30.475Z,11.10
2019-02-21T16:06:50.916Z,11.10
2019-02-21T16:10:54.261Z,11.00
2019-02-21T16:15:06.429Z,11.00
2019-02-21T16:19:17.503Z,10.90
2019-02-21T16:23:29.249Z,10.60
2019-02-21T16:27:40.355Z,10.30
2019-02-21T16:31:51.353Z,10.00
2019-02-21T16:36:02.375Z,9.80
2019-02-21T16:40:17.391Z,9.60
2019-02-21T16:44:28.426Z,9.60
2019-02-21T16:48:39.474Z,9.60
2019-02-21T16:52:50.485Z,9.70
2019-02-21T16:57:01.469Z,9.80
2019-02-21T17:01:12.494Z,9.90
2019-02-21T17:05:24.495Z,9.90
2019-02-21T17:09:35.530Z,9.90
2019-02-21T17:13:46.625Z,9.90
2019-02-21T17:17:56.678Z,10.00
2019-02-21T17:22:08.167Z,10.00
2019-02-21T17:26:20.886Z,9.90
2019-02-21T17:30:33.831Z,9.90
2019-02-21T17:34:44.061Z,10.00
2019-02-21T17:38:55.180Z,10.00
2019-02-21T17:43:06.820Z,10.00
2019-02-21T17:47:17.921Z,10.00
2019-02-21T17:51:28.932Z,10.00
2019-02-21T17:55:40.045Z,10.00
2019-02-21T17:59:51.157Z,10.00
2019-02-21T18:04:02.170Z,10.00
2019-02-21T18:08:14.552Z,10.00
2019-02-21T18:12:25.728Z,10.00
2019-02-21T18:16:50.457Z,10.00
2019-02-21T18:20:52.286Z,10.00
2019-02-21T18:25:04.061Z,10.00
2019-02-21T18:29:15.085Z,10.00
2019-02-21T18:33:26.119Z,10.00
2019-02-21T18:37:46.666Z,10.00
2019-02-21T18:41:49.790Z,10.00
2019-02-21T18:46:02.513Z,10.00
2019-02-21T18:50:14.467Z,10.00
2019-02-21T18:54:25.487Z,10.10
2019-02-21T18:58:36.595Z,10.10
2019-02-21T19:02:47.691Z,10.20
2019-02-21T19:06:58.702Z,10.20
2019-02-21T19:11:10.085Z,10.20
2019-02-21T19:15:22.028Z,10.20
2019-02-21T19:19:33.097Z,10.20
2019-02-21T19:23:44.113Z,10.20
2019-02-21T19:27:55.235Z,10.20
2019-02-21T19:32:06.337Z,10.00
2019-02-21T19:36:17.860Z,9.90
2019-02-21T19:40:28.598Z,9.90
2019-02-21T19:44:39.609Z,9.80
2019-02-21T19:48:51.300Z,9.90
2019-02-21T19:53:03.610Z,9.90
2019-02-21T19:57:14.728Z,9.90
2019-02-21T20:01:25.729Z,9.90
2019-02-21T20:05:36.742Z,9.90
2019-02-21T20:09:48.006Z,9.70
2019-02-21T20:13:59.380Z,9.40
2019-02-21T20:18:10.393Z,9.30
2019-02-21T20:22:22.956Z,9.20
2019-02-21T20:26:34.167Z,9.10
2019-02-21T20:30:45.359Z,9.00
2019-02-21T20:34:56.441Z,8.90
2019-02-21T20:39:09.283Z,9.00
2019-02-21T20:43:20.445Z,8.90
2019-02-21T20:47:31.444Z,8.90
2019-02-21T20:51:42.551Z,8.90
2019-02-21T20:55:53.669Z,9.00
2019-02-21T21:00:10.318Z,9.00
2019-02-21T21:04:21.319Z,9.10
2019-02-21T21:08:42.484Z,9.10
2019-02-21T21:12:45.193Z,9.10
2019-02-21T21:16:56.202Z,9.00
2019-02-21T21:21:07.199Z,8.80
2019-02-21T21:25:18.704Z,8.60
2019-02-21T21:29:29.698Z,8.60
2019-02-21T21:33:40.705Z,8.60
2019-02-21T21:37:51.702Z,8.70
2019-02-21T21:42:02.712Z,8.80
2019-02-21T21:46:13.705Z,8.80
2019-02-21T21:50:24.765Z,8.80
2019-02-21T21:54:37.908Z,8.80
2019-02-21T21:58:48.840Z,8.70
2019-02-21T22:02:59.976Z,8.70
2019-02-21T22:07:11.008Z,8.60
2019-02-21T22:11:22.003Z,8.60
2019-02-21T22:15:33.094Z,8.50
2019-02-21T22:19:44.187Z,8.40
2019-02-21T22:23:55.271Z,8.40
2019-02-21T22:28:07.554Z,8.30
2019-02-21T22:32:19.818Z,8.40
2019-02-21T22:36:31.392Z,8.50
2019-02-21T22:40:42.487Z,8.60
2019-02-21T22:44:53.501Z,8.70
2019-02-21T22:49:04.611Z,8.70
2019-02-21T22:53:15.701Z,8.60
2019-02-21T22:57:26.820Z,8.60
2019-02-21T23:01:37.890Z,8.60
2019-02-21T23:06:26.597Z,8.50
2019-02-21T23:10:37.604Z,8.40
2019-02-21T23:14:49.065Z,8.40
2019-02-21T23:19:19.567Z,8.40
2019-02-21T23:23:30.787Z,8.50
2019-02-21T23:27:41.901Z,8.50
2019-02-21T23:31:52.927Z,8.70
2019-02-21T23:36:04.021Z,8.70
2019-02-21T23:40:15.831Z,8.80
2019-02-21T23:44:27.161Z,8.80
2019-02-21T23:48:38.274Z,8.90
2019-02-21T23:52:49.388Z,8.90
2019-02-21T23:57:00.481Z,9.00
